Time;durP1;ratioP1;P1;durP2;ratioP2;P2;SDS_P1;SDS_P2;PMS_P1;PMS_P2;Temp;Humidity;BMP_temperature;BMP_pressure;BME280_temperature;BME280_humidity;BME280_pressure;Samples;Min_cycle;Max_cycle;Signal;HPM_P1;HPM_P2
2022/03/23 00:01:36;;;;;;;27.17;15.53;;;-1.80;99.90;;;;;;8406853;28;20219;-67
2022/03/23 00:05:41;;;;;;;28.30;17.20;;;-1.90;99.90;;;;;;8428196;28;20242;-64
2022/03/23 00:09:42;;;;;;;33.80;16.50;;;-1.90;99.90;;;;;;8400852;28;20214;-67
2022/03/23 00:13:43;;;;;;;31.23;16.60;;;-1.90;99.90;;;;;;8412494;28;20207;-66
2022/03/23 00:17:44;;;;;;;28.80;15.57;;;-2.00;99.90;;;;;;8432587;28;20203;-65
2022/03/23 00:21:44;;;;;;;33.83;15.73;;;-2.10;1.00;;;;;;8440007;28;20215;-66
2022/03/23 00:25:45;;;;;;;29.30;16.07;;;-2.20;1.00;;;;;;8418378;28;20211;-66
2022/03/23 00:29:46;;;;;;;35.13;16.13;;;-2.20;99.90;;;;;;8416782;28;20291;-67
2022/03/23 00:33:54;;;;;;;27.93;14.53;;;-2.20;1.00;;;;;;8399122;28;20290;-66
2022/03/23 00:37:55;;;;;;;25.63;14.43;;;-2.20;99.90;;;;;;8406425;28;20208;-66
2022/03/23 00:41:56;;;;;;;24.90;13.27;;;-2.10;93.20;;;;;;8418237;28;20272;-66
2022/03/23 00:45:57;;;;;;;26.93;13.43;;;-2.20;1.00;;;;;;8415078;28;20234;-66
2022/03/23 00:49:58;;;;;;;28.27;15.57;;;-2.20;1.00;;;;;;8439363;28;20287;-65
2022/03/23 00:53:58;;;;;;;28.60;16.50;;;-2.30;99.90;;;;;;8406615;28;20215;-66
2022/03/23 00:57:59;;;;;;;30.27;16.53;;;-2.40;1.00;;;;;;8398437;28;20196;-65
2022/03/23 01:02:01;;;;;;;28.27;16.10;;;-2.40;99.90;;;;;;8437259;28;20271;-65
2022/03/23 01:06:01;;;;;;;30.63;16.57;;;-2.50;99.90;;;;;;8407577;28;20254;-67
2022/03/23 01:10:04;;;;;;;32.23;15.97;;;-2.50;1.00;;;;;;8406930;28;20192;-66
2022/03/23 01:14:07;;;;;;;34.70;17.77;;;-2.50;1.00;;;;;;8413349;28;20261;-64
2022/03/23 01:18:09;;;;;;;35.47;17.03;;;-2.60;1.00;;;;;;8406463;28;20208;-65
2022/03/23 01:22:09;;;;;;;33.87;17.87;;;-2.70;1.00;;;;;;8420694;28;20211;-65
2022/03/23 01:26:10;;;;;;;26.97;15.70;;;-2.80;1.00;;;;;;8429334;28;20226;-66
2022/03/23 01:30:13;;;;;;;30.87;15.73;;;-2.90;1.00;;;;;;8415353;28;20220;-67
2022/03/23 01:34:15;;;;;;;29.37;15.50;;;-2.90;1.00;;;;;;8409247;28;20274;-66
2022/03/23 01:38:15;;;;;;;28.00;14.00;;;-3.00;56.20;;;;;;8395779;28;20207;-66
2022/03/23 01:42:16;;;;;;;28.47;13.80;;;-3.10;99.90;;;;;;8417565;28;20240;-68
2022/03/23 01:46:19;;;;;;;29.77;14.43;;;-3.20;99.90;;;;;;8428717;28;20329;-66
2022/03/23 01:50:20;;;;;;;26.57;14.27;;;-3.30;99.90;;;;;;8416598;28;20264;-64
2022/03/23 01:54:21;;;;;;;28.00;14.93;;;-3.30;99.90;;;;;;8407631;28;20202;-66
2022/03/23 01:58:22;;;;;;;30.47;15.00;;;-3.30;99.90;;;;;;8399275;28;20208;-60
2022/03/23 02:02:22;;;;;;;32.87;14.80;;;-3.30;1.00;;;;;;8397057;28;20225;-61
2022/03/23 02:06:23;;;;;;;29.20;14.73;;;-3.30;1.00;;;;;;8414085;28;20201;-60
2022/03/23 02:10:24;;;;;;;28.87;14.97;;;-3.30;1.00;;;;;;8411886;28;20210;-60
2022/03/23 02:14:25;;;;;;;33.13;16.87;;;-3.40;1.00;;;;;;8401991;28;20211;-62
2022/03/23 02:18:26;;;;;;;30.03;15.20;;;-3.30;95.00;;;;;;8424385;28;20240;-60
2022/03/23 02:22:27;;;;;;;23.97;13.33;;;-3.30;99.90;;;;;;8402551;28;21348;-60
2022/03/23 02:26:27;;;;;;;26.37;13.33;;;-3.20;99.90;;;;;;8431814;28;20239;-61
2022/03/23 02:30:28;;;;;;;29.77;13.70;;;-3.30;99.90;;;;;;8429012;28;20210;-60
2022/03/23 02:34:29;;;;;;;23.17;13.03;;;-3.40;99.90;;;;;;8410267;28;20274;-60
2022/03/23 02:38:30;;;;;;;21.63;12.30;;;-3.40;99.90;;;;;;8436400;28;20211;-62
2022/03/23 02:42:31;;;;;;;25.93;14.77;;;-3.60;99.90;;;;;;8407136;28;20241;-60
2022/03/23 02:46:35;;;;;;;32.83;14.83;;;-3.70;35.40;;;;;;8436775;28;20275;-62
2022/03/23 02:50:36;;;;;;;21.10;12.63;;;-3.80;27.80;;;;;;8413191;28;20216;-59
2022/03/23 03:03:41;;;;;;;21.97;11.63;;;-3.90;99.90;;;;;;8440103;28;20280;-60
2022/03/23 03:12:02;;;;;;;21.83;11.97;;;-4.00;99.90;;;;;;8435735;28;20318;-60
2022/03/23 03:16:03;;;;;;;25.33;11.90;;;-4.10;99.90;;;;;;8414045;28;20252;-59
2022/03/23 03:20:05;;;;;;;20.93;11.70;;;-4.20;99.90;;;;;;8398310;28;20212;-60
2022/03/23 03:24:06;;;;;;;21.47;11.13;;;-4.20;99.90;;;;;;8406863;28;20304;-60
2022/03/23 03:28:07;;;;;;;24.20;12.53;;;-4.20;99.90;;;;;;8412536;28;20208;-60
2022/03/23 03:32:08;;;;;;;21.27;11.97;;;-4.10;99.90;;;;;;8443421;28;20214;-60
2022/03/23 03:36:10;;;;;;;22.40;12.67;;;-4.10;99.90;;;;;;8420521;28;20208;-60
2022/03/23 03:40:12;;;;;;;25.23;13.03;;;-4.10;99.90;;;;;;8443576;28;20323;-60
2022/03/23 03:44:12;;;;;;;21.80;11.97;;;-4.10;99.90;;;;;;8419751;28;20220;-60
2022/03/23 03:48:14;;;;;;;22.50;12.50;;;-4.10;99.90;;;;;;8435000;28;20211;-61
2022/03/23 03:52:14;;;;;;;24.10;13.10;;;-4.20;99.90;;;;;;8398629;28;20209;-61
2022/03/23 03:56:15;;;;;;;25.20;12.23;;;-4.20;99.90;;;;;;8413441;28;20228;-60
2022/03/23 04:00:17;;;;;;;24.23;12.97;;;-4.30;99.90;;;;;;8419577;28;20220;-60
2022/03/23 04:04:17;;;;;;;39.27;17.23;;;-4.30;99.90;;;;;;8438145;28;20259;-60
2022/03/23 04:08:18;;;;;;;76.90;25.43;;;-4.30;99.90;;;;;;8444592;28;20204;-60
2022/03/23 04:12:19;;;;;;;60.03;23.47;;;-4.20;99.90;;;;;;8435339;28;20231;-60
2022/03/23 04:16:20;;;;;;;46.40;17.60;;;-4.20;99.90;;;;;;8411463;28;20210;-62
2022/03/23 04:20:22;;;;;;;34.33;14.73;;;-4.20;99.90;;;;;;8432290;28;20263;-60
2022/03/23 04:24:23;;;;;;;29.17;13.00;;;-4.40;99.90;;;;;;8406040;28;20261;-61
2022/03/23 04:28:24;;;;;;;24.70;13.20;;;-4.50;99.90;;;;;;8415683;28;20204;-64
2022/03/23 04:32:25;;;;;;;24.73;12.67;;;-4.60;99.90;;;;;;8415777;28;20216;-60
2022/03/23 04:36:26;;;;;;;50.37;16.03;;;-4.70;99.90;;;;;;8403082;28;20203;-62
2022/03/23 04:40:27;;;;;;;80.23;22.00;;;-4.70;99.90;;;;;;8399469;28;20233;-61
2022/03/23 04:44:27;;;;;;;54.37;17.93;;;-4.60;99.90;;;;;;8437067;28;20276;-60
2022/03/23 04:48:29;;;;;;;45.73;15.87;;;-4.60;99.90;;;;;;8415661;28;20315;-59
2022/03/23 04:52:30;;;;;;;34.33;13.43;;;-4.60;99.90;;;;;;8430654;28;20215;-59
2022/03/23 04:56:30;;;;;;;28.23;12.40;;;-4.70;99.90;;;;;;8422840;28;20219;-59
2022/03/23 05:00:33;;;;;;;29.40;11.47;;;-4.70;99.90;;;;;;8429729;28;20216;-58
2022/03/23 05:04:34;;;;;;;15.70;9.20;;;-4.70;99.90;;;;;;8410459;28;20228;-59
2022/03/23 05:08:34;;;;;;;22.37;10.27;;;-4.50;99.90;;;;;;8418209;28;20293;-58
2022/03/23 05:12:40;;;;;;;18.47;8.67;;;-4.50;99.90;;;;;;8414190;28;20238;-60
2022/03/23 05:16:41;;;;;;;22.90;11.40;;;-4.30;99.90;;;;;;8425809;28;20210;-59
2022/03/23 05:20:41;;;;;;;31.90;14.93;;;-4.20;99.90;;;;;;8409531;28;20247;-60
2022/03/23 05:24:42;;;;;;;71.50;29.20;;;-4.10;99.90;;;;;;8408191;28;20250;-60
2022/03/23 05:28:43;;;;;;;51.57;20.30;;;-4.00;99.90;;;;;;8416979;28;20212;-59
2022/03/23 05:32:44;;;;;;;40.30;16.07;;;-3.90;99.90;;;;;;8422892;28;20269;-59
2022/03/23 05:36:45;;;;;;;28.23;12.10;;;-3.80;99.90;;;;;;8413160;28;20216;-59
2022/03/23 05:40:46;;;;;;;22.50;11.57;;;-3.60;99.90;;;;;;8413285;28;20210;-61
2022/03/23 05:44:47;;;;;;;20.63;9.97;;;-3.50;99.90;;;;;;8407585;28;20307;-61
2022/03/23 05:48:48;;;;;;;21.57;11.30;;;-3.30;99.90;;;;;;8440669;28;20260;-61
2022/03/23 05:52:49;;;;;;;40.07;18.27;;;-3.00;99.90;;;;;;8423169;28;20207;-62
2022/03/23 05:56:51;;;;;;;36.83;14.63;;;-2.80;99.90;;;;;;8432593;28;20215;-60
2022/03/23 06:00:52;;;;;;;39.27;17.53;;;-2.70;99.90;;;;;;8412126;28;20266;-62
2022/03/23 06:04:52;;;;;;;39.87;17.63;;;-2.50;99.90;;;;;;8402210;28;20245;-60
2022/03/23 06:08:53;;;;;;;27.27;13.43;;;-2.30;99.90;;;;;;8431897;28;20216;-61
2022/03/23 06:12:54;;;;;;;25.93;11.53;;;-2.10;99.90;;;;;;8439621;28;20203;-59
2022/03/23 06:16:55;;;;;;;22.10;11.90;;;-1.80;99.90;;;;;;8418575;28;20213;-62
2022/03/23 06:20:56;;;;;;;92.70;35.60;;;-1.60;99.90;;;;;;8413729;28;20207;-61
2022/03/23 06:24:56;;;;;;;66.07;27.03;;;-1.20;99.90;;;;;;8433392;28;20238;-60
2022/03/23 06:28:57;;;;;;;47.87;19.83;;;-0.90;1.00;;;;;;8426056;28;20247;-60
2022/03/23 06:32:58;;;;;;;61.13;28.67;;;-0.60;99.90;;;;;;8405986;28;20214;-59
2022/03/23 06:37:01;;;;;;;81.27;36.33;;;-0.20;99.90;;;;;;8418764;28;20208;-62
2022/03/23 06:41:03;;;;;;;104.77;47.20;;;0.00;1.00;;;;;;8418073;28;20234;-61
2022/03/23 06:45:04;;;;;;;76.10;37.70;;;0.30;68.30;;;;;;8411773;28;20220;-61
2022/03/23 06:49:05;;;;;;;91.77;41.80;;;0.60;99.90;;;;;;8414081;28;20204;-60
2022/03/23 06:53:06;;;;;;;77.70;39.23;;;0.80;1.00;;;;;;8398597;28;20265;-59
2022/03/23 06:57:07;;;;;;;62.03;31.77;;;1.10;1.00;;;;;;8402043;28;20203;-62
2022/03/23 07:01:08;;;;;;;48.83;25.80;;;1.50;99.90;;;;;;8430455;28;20252;-59
2022/03/23 07:05:10;;;;;;;43.70;24.43;;;1.80;34.90;;;;;;8413314;28;20319;-62
2022/03/23 07:13:30;;;;;;;45.13;24.07;;;2.40;1.00;;;;;;8428879;28;20240;-60
2022/03/23 07:17:33;;;;;;;44.03;23.50;;;2.80;1.00;;;;;;8407911;28;20199;-59
2022/03/23 07:21:34;;;;;;;39.87;21.80;;;3.10;1.00;;;;;;8416580;28;20307;-61
2022/03/23 07:25:35;;;;;;;41.53;22.53;;;3.50;1.00;;;;;;8416613;28;20200;-60
2022/03/23 07:29:36;;;;;;;38.37;20.33;;;3.90;5.50;;;;;;8430227;28;20202;-62
2022/03/23 07:33:37;;;;;;;38.47;20.77;;;4.40;1.00;;;;;;8407304;28;20248;-61
2022/03/23 07:37:38;;;;;;;35.47;20.00;;;4.90;1.00;;;;;;8437595;28;20200;-60
2022/03/23 07:41:39;;;;;;;32.77;18.70;;;5.50;99.90;;;;;;8443101;28;20217;-61
2022/03/23 07:45:40;;;;;;;53.13;30.00;;;6.10;99.90;;;;;;8414074;28;20227;-61
2022/03/23 07:49:41;;;;;;;55.70;32.07;;;7.00;1.00;;;;;;8404453;28;20216;-60
2022/03/23 07:53:42;;;;;;;71.17;39.07;;;7.50;99.90;;;;;;8445999;28;20272;-61
2022/03/23 07:57:44;;;;;;;69.53;35.13;;;8.10;51.30;;;;;;8418533;28;20261;-60
2022/03/23 08:01:45;;;;;;;54.17;29.57;;;8.50;1.00;;;;;;8424036;28;20219;-62
2022/03/23 08:05:47;;;;;;;56.07;29.00;;;8.80;1.00;;;;;;8421518;28;20223;-61
2022/03/23 08:09:48;;;;;;;37.77;24.03;;;9.00;1.00;;;;;;8416397;28;20208;-59
2022/03/23 08:13:49;;;;;;;35.53;20.90;;;9.30;1.00;;;;;;8418867;28;20512;-60
2022/03/23 08:17:50;;;;;;;27.90;17.43;;;9.60;1.00;;;;;;8415787;28;20212;-60
2022/03/23 08:21:52;;;;;;;26.87;17.20;;;10.00;1.00;;;;;;8404525;28;20212;-59
2022/03/23 08:25:53;;;;;;;28.30;17.77;;;10.50;99.90;;;;;;8415842;28;20219;-62
2022/03/23 08:29:54;;;;;;;33.03;19.83;;;10.90;99.90;;;;;;8397449;28;20211;-60
2022/03/23 08:33:54;;;;;;;28.67;18.23;;;11.40;99.90;;;;;;8425091;28;20212;-59
2022/03/23 08:37:55;;;;;;;28.03;17.37;;;11.80;99.90;;;;;;8399120;28;20398;-61
2022/03/23 08:41:56;;;;;;;25.00;17.10;;;12.00;99.90;;;;;;8410338;28;20215;-59
2022/03/23 08:45:59;;;;;;;29.60;18.53;;;12.30;99.90;;;;;;8408286;28;20229;-61
2022/03/23 08:50:00;;;;;;;32.17;20.47;;;12.60;99.90;;;;;;8429833;28;20434;-61
2022/03/23 08:54:01;;;;;;;29.90;17.63;;;12.90;99.90;;;;;;8407386;28;20207;-60
2022/03/23 08:58:02;;;;;;;12.33;8.37;;;13.10;99.90;;;;;;8423540;28;20231;-59
2022/03/23 09:02:03;;;;;;;12.70;6.60;;;13.40;99.90;;;;;;8422521;28;20264;-60
2022/03/23 09:06:04;;;;;;;8.50;6.17;;;13.80;98.90;;;;;;8412405;28;20212;-57
2022/03/23 09:10:07;;;;;;;9.07;6.20;;;14.10;69.50;;;;;;8436783;28;20200;-59
2022/03/23 09:14:07;;;;;;;10.57;7.00;;;14.40;51.20;;;;;;8441733;28;20200;-60
2022/03/23 09:18:08;;;;;;;10.70;7.03;;;14.70;38.80;;;;;;8402051;28;20203;-60
2022/03/23 09:22:09;;;;;;;11.47;7.47;;;14.90;33.30;;;;;;8419007;28;20298;-62
2022/03/23 09:26:11;;;;;;;9.93;6.60;;;15.10;31.40;;;;;;8424245;28;20218;-62
2022/03/23 09:30:13;;;;;;;13.47;8.77;;;15.40;23.50;;;;;;8414819;28;20203;-60
2022/03/23 09:34:14;;;;;;;8.50;5.63;;;15.50;18.90;;;;;;8426335;28;20295;-59
2022/03/23 09:38:15;;;;;;;8.13;5.90;;;15.70;8.60;;;;;;8413150;28;20211;-61
2022/03/23 09:42:19;;;;;;;7.70;5.60;;;15.90;1.00;;;;;;8426483;28;20223;-59
2022/03/23 09:46:19;;;;;;;10.50;6.47;;;16.10;1.00;;;;;;8402133;28;20307;-61
2022/03/23 09:50:20;;;;;;;7.67;5.80;;;16.20;1.00;;;;;;8429592;28;20207;-64
2022/03/23 09:54:22;;;;;;;8.70;6.13;;;16.40;1.00;;;;;;8406288;28;20211;-62
2022/03/23 09:58:24;;;;;;;10.10;6.40;;;16.50;1.00;;;;;;8408415;28;20210;-60
2022/03/23 10:02:40;;;;;;;8.47;5.70;;;16.60;1.00;;;;;;8410893;28;20219;-61
2022/03/23 10:07:18;;;;;;;10.23;6.53;;;16.80;1.00;;;;;;8414706;28;20307;-62
2022/03/23 10:11:37;;;;;;;8.70;5.80;;;17.00;1.00;;;;;;8406482;28;20326;-62
2022/03/23 10:16:15;;;;;;;7.73;4.70;;;17.20;1.00;;;;;;8425620;28;20204;-60
2022/03/23 10:20:16;;;;;;;7.70;5.10;;;17.40;1.00;;;;;;8410053;28;20319;-62
2022/03/23 10:24:17;;;;;;;7.17;4.93;;;17.50;1.00;;;;;;8418124;28;20228;-60
2022/03/23 10:28:18;;;;;;;6.83;4.60;;;17.60;1.00;;;;;;8414662;28;20225;-60
2022/03/23 10:32:21;;;;;;;5.50;3.93;;;17.70;1.00;;;;;;8410073;28;20291;-60
2022/03/23 10:36:23;;;;;;;5.40;3.97;;;17.80;1.00;;;;;;8430316;28;20200;-62
2022/03/23 10:40:25;;;;;;;4.77;3.60;;;17.90;1.00;;;;;;8427831;28;20196;-60
2022/03/23 10:44:26;;;;;;;5.00;4.20;;;18.10;1.00;;;;;;8404878;28;20225;-60
2022/03/23 10:48:27;;;;;;;4.53;3.63;;;18.10;1.00;;;;;;8442290;28;20204;-62
2022/03/23 10:52:28;;;;;;;6.70;3.93;;;18.00;1.00;;;;;;8426533;28;20240;-61
2022/03/23 10:56:37;;;;;;;5.40;3.47;;;18.20;1.00;;;;;;8413416;28;20299;-60
2022/03/23 11:00:39;;;;;;;4.27;3.37;;;18.30;1.00;;;;;;8408272;28;20265;-61
2022/03/23 11:04:52;;;;;;;3.63;3.17;;;18.40;1.00;;;;;;8424780;28;20231;-61
2022/03/23 11:15:46;;;;;;;4.30;3.30;;;18.50;1.00;;;;;;8413730;28;20244;-60
2022/03/23 11:17:47;;;;;;;3.87;2.97;;;18.50;1.00;;;;;;8441509;28;20325;-60
2022/03/23 11:21:59;;;;;;;5.53;3.70;;;18.60;1.00;;;;;;8412340;28;20215;-61
2022/03/23 11:26:05;;;;;;;4.27;3.30;;;18.80;1.00;;;;;;8427150;28;20258;-61
2022/03/23 11:30:07;;;;;;;4.47;3.30;;;19.00;1.00;;;;;;8420462;28;20202;-60
2022/03/23 11:34:10;;;;;;;6.77;3.93;;;19.00;1.00;;;;;;8416916;28;20243;-62
2022/03/23 11:38:12;;;;;;;5.13;3.83;;;18.90;1.00;;;;;;8410589;28;20595;-59
2022/03/23 11:42:14;;;;;;;3.97;2.93;;;18.70;1.00;;;;;;8442095;28;20269;-60
2022/03/23 11:46:21;;;;;;;5.20;3.80;;;18.70;1.00;;;;;;8431784;28;20232;-61
2022/03/23 11:50:50;;;;;;;6.37;3.73;;;18.80;1.00;;;;;;8402113;28;20248;-61
2022/03/23 11:59:26;;;;;;;9.33;3.87;;;19.10;1.00;;;;;;8434860;28;20223;-62
2022/03/23 12:03:57;;;;;;;4.97;3.63;;;19.10;1.00;;;;;;8398794;28;20235;-62
2022/03/23 12:07:58;;;;;;;5.33;3.27;;;19.00;1.00;;;;;;8436237;28;20309;-62
2022/03/23 12:12:00;;;;;;;4.53;3.73;;;19.00;1.00;;;;;;8401641;28;20204;-61
2022/03/23 12:16:06;;;;;;;4.27;3.30;;;19.20;1.00;;;;;;8432973;28;20282;-61
2022/03/23 12:20:10;;;;;;;6.67;4.57;;;19.20;1.00;;;;;;8401909;28;20193;-60
2022/03/23 12:24:25;;;;;;;5.17;4.03;;;19.30;1.00;;;;;;8422274;28;20227;-61
2022/03/23 12:28:31;;;;;;;4.07;3.47;;;19.40;1.00;;;;;;8422539;28;20207;-60
2022/03/23 12:32:37;;;;;;;5.83;3.70;;;19.30;1.00;;;;;;8408751;28;20207;-60
2022/03/23 12:36:59;;;;;;;3.93;3.50;;;19.50;1.00;;;;;;8416127;28;20196;-61
2022/03/23 12:41:06;;;;;;;4.23;3.43;;;19.60;1.00;;;;;;8406126;28;20213;-60
2022/03/23 12:45:13;;;;;;;4.13;3.57;;;19.70;1.00;;;;;;8434634;28;20239;-59
2022/03/23 12:58:10;;;;;;;5.93;4.10;;;20.10;1.00;;;;;;8421937;28;20222;-60
2022/03/23 13:02:28;;;;;;;5.47;3.37;;;20.00;1.00;;;;;;8399891;28;20208;-62
2022/03/23 13:06:35;;;;;;;3.47;3.03;;;20.00;1.00;;;;;;8432607;28;20204;-62
2022/03/23 13:10:36;;;;;;;4.50;3.63;;;20.00;1.00;;;;;;8415687;28;20250;-61
2022/03/23 13:14:37;;;;;;;4.60;3.50;;;20.00;1.00;;;;;;8429670;28;20200;-60
2022/03/23 13:18:40;;;;;;;5.70;3.43;;;20.10;1.00;;;;;;8403159;28;20225;-61
2022/03/23 13:22:41;;;;;;;3.77;3.07;;;20.20;1.00;;;;;;8423019;28;20298;-59
2022/03/23 13:26:44;;;;;;;6.27;3.40;;;20.30;1.00;;;;;;8430002;28;20218;-60
2022/03/23 13:30:45;;;;;;;4.70;3.07;;;20.30;1.00;;;;;;8424026;28;20309;-60
2022/03/23 13:34:53;;;;;;;4.33;3.10;;;20.30;1.00;;;;;;8400360;28;20204;-60
2022/03/23 13:38:56;;;;;;;3.97;3.40;;;20.30;1.00;;;;;;8414698;28;20216;-62
2022/03/23 13:47:40;;;;;;;13.47;8.20;;;20.30;1.00;;;;;;8427841;28;20219;-60
2022/03/23 13:51:45;;;;;;;5.37;3.93;;;20.30;1.00;;;;;;8435665;28;20275;-62
2022/03/23 13:55:49;;;;;;;9.87;6.20;;;20.30;1.00;;;;;;8420665;28;20308;-61
2022/03/23 13:59:51;;;;;;;41.97;29.47;;;20.20;1.00;;;;;;8406535;28;20216;-61
2022/03/23 14:03:57;;;;;;;5.13;4.03;;;20.30;1.00;;;;;;8399753;28;20228;-60
2022/03/23 14:07:59;;;;;;;8.80;7.40;;;20.40;1.00;;;;;;8427500;28;20267;-62
2022/03/23 14:12:04;;;;;;;49.63;40.20;;;20.40;1.00;;;;;;8411461;28;20260;-60
2022/03/23 14:16:06;;;;;;;8.13;6.33;;;20.40;1.00;;;;;;8414425;28;20200;-61
2022/03/23 14:20:08;;;;;;;45.33;31.20;;;20.40;1.00;;;;;;8420570;28;20286;-60
2022/03/23 14:24:09;;;;;;;93.40;72.23;;;20.40;1.00;;;;;;8414614;28;20216;-59
2022/03/23 14:28:19;;;;;;;47.23;35.83;;;20.30;1.00;;;;;;8409065;28;20204;-61
2022/03/23 14:32:30;;;;;;;57.20;42.73;;;20.30;1.00;;;;;;8430168;28;20203;-62
2022/03/23 14:36:31;;;;;;;7.20;5.37;;;20.20;1.00;;;;;;8429590;28;20246;-61
2022/03/23 14:40:36;;;;;;;43.33;28.43;;;20.20;1.00;;;;;;8409181;28;20290;-62
2022/03/23 14:44:44;;;;;;;36.63;25.93;;;20.20;1.00;;;;;;8408952;28;20303;-61
2022/03/23 14:48:45;;;;;;;37.30;26.47;;;20.20;1.00;;;;;;8406194;28;20201;-63
2022/03/23 14:52:45;;;;;;;4.90;3.90;;;20.10;1.00;;;;;;8407519;28;20240;-61
2022/03/23 14:56:49;;;;;;;14.07;9.57;;;20.10;1.00;;;;;;8399956;28;20212;-61
2022/03/23 15:00:51;;;;;;;9.17;6.13;;;20.10;1.00;;;;;;8408923;28;20219;-62
2022/03/23 15:04:52;;;;;;;11.00;5.03;;;20.10;1.00;;;;;;8400889;28;20224;-61
2022/03/23 15:13:18;;;;;;;4.90;3.33;;;20.00;1.00;;;;;;8444048;28;20214;-59
2022/03/23 15:17:19;;;;;;;4.90;3.53;;;20.10;1.00;;;;;;8418529;28;20208;-63
2022/03/23 15:21:19;;;;;;;6.43;4.47;;;19.90;1.00;;;;;;8402637;28;20303;-63
2022/03/23 15:25:20;;;;;;;4.37;3.47;;;19.90;1.00;;;;;;8405183;28;20232;-61
2022/03/23 15:29:21;;;;;;;4.27;3.27;;;19.80;1.00;;;;;;8431549;28;20255;-60
2022/03/23 15:33:22;;;;;;;5.83;3.60;;;19.70;1.00;;;;;;8442416;28;20196;-60
2022/03/23 15:37:23;;;;;;;8.50;5.23;;;19.60;1.00;;;;;;8405168;28;20196;-61
2022/03/23 15:41:24;;;;;;;6.50;3.70;;;19.50;1.00;;;;;;8399840;28;20219;-60
2022/03/23 15:45:25;;;;;;;4.60;3.40;;;19.50;1.00;;;;;;8422421;28;20215;-60
2022/03/23 15:49:26;;;;;;;4.47;3.40;;;19.40;1.00;;;;;;8404612;28;20207;-60
2022/03/23 15:53:26;;;;;;;4.93;3.73;;;19.40;1.00;;;;;;8433081;28;20275;-60
2022/03/23 15:57:27;;;;;;;13.27;6.53;;;19.30;1.00;;;;;;8425467;28;20206;-62
2022/03/23 16:01:28;;;;;;;5.50;3.07;;;19.20;1.00;;;;;;8409061;28;20212;-62
2022/03/23 16:05:29;;;;;;;9.33;5.07;;;19.10;1.00;;;;;;8401116;28;20319;-61
2022/03/23 16:09:30;;;;;;;4.33;3.40;;;19.00;1.00;;;;;;8413754;28;20211;-62
2022/03/23 16:13:30;;;;;;;4.30;3.30;;;18.90;1.00;;;;;;8417694;28;20200;-61
2022/03/23 16:17:35;;;;;;;8.70;3.90;;;18.70;1.00;;;;;;8398263;28;20211;-62
2022/03/23 16:21:36;;;;;;;13.10;5.93;;;18.60;1.00;;;;;;8401588;28;20254;-62
2022/03/23 16:25:37;;;;;;;6.90;3.97;;;18.50;1.00;;;;;;8417910;28;20279;-62
2022/03/23 16:29:38;;;;;;;4.43;3.67;;;18.40;1.00;;;;;;8406693;28;20203;-60
2022/03/23 16:33:42;;;;;;;5.90;4.07;;;18.30;1.00;;;;;;8427163;28;20196;-60
2022/03/23 16:37:45;;;;;;;6.13;5.00;;;18.10;1.00;;;;;;8402627;28;20204;-61
2022/03/23 16:41:46;;;;;;;9.17;5.00;;;17.90;1.00;;;;;;8410167;28;20212;-63
2022/03/23 16:45:47;;;;;;;12.23;6.47;;;17.70;1.00;;;;;;8424563;28;20208;-60
2022/03/23 16:49:48;;;;;;;11.13;7.73;;;17.60;1.00;;;;;;8418799;28;20279;-60
2022/03/23 16:53:48;;;;;;;15.40;10.63;;;17.30;1.00;;;;;;8412399;28;20203;-61
2022/03/23 16:57:50;;;;;;;11.40;7.73;;;17.10;1.00;;;;;;8411996;28;20210;-60
2022/03/23 17:01:52;;;;;;;10.17;7.60;;;17.00;1.00;;;;;;8413282;28;20295;-60
2022/03/23 17:14:47;;;;;;;9.93;6.27;;;16.20;1.00;;;;;;8380552;28;20244;-62
2022/03/23 17:18:49;;;;;;;10.53;5.80;;;15.80;1.00;;;;;;8432320;28;20228;-60
2022/03/23 17:22:50;;;;;;;13.67;9.17;;;15.40;1.00;;;;;;8430082;28;20559;-60
2022/03/23 17:26:51;;;;;;;9.70;5.83;;;14.80;1.00;;;;;;8415722;28;20208;-61
2022/03/23 17:30:52;;;;;;;8.67;5.30;;;14.20;1.00;;;;;;8402714;28;20322;-62
2022/03/23 17:34:54;;;;;;;8.63;5.17;;;13.70;1.00;;;;;;8425084;28;20509;-62
2022/03/23 17:38:55;;;;;;;7.00;4.70;;;13.20;1.00;;;;;;8405137;28;20211;-61
2022/03/23 17:42:57;;;;;;;7.70;4.40;;;12.80;1.00;;;;;;8436094;28;20250;-60
2022/03/23 17:47:00;;;;;;;8.73;4.90;;;12.30;1.00;;;;;;8437341;28;20192;-64
2022/03/23 17:51:02;;;;;;;5.13;4.60;;;11.90;1.00;;;;;;8409192;28;20209;-61
2022/03/23 17:55:03;;;;;;;7.27;4.40;;;11.60;1.00;;;;;;8406172;28;20208;-61
2022/03/23 17:59:05;;;;;;;8.23;4.10;;;11.30;1.00;;;;;;8415597;28;20295;-60
2022/03/23 18:03:06;;;;;;;9.63;5.20;;;11.10;1.00;;;;;;8413202;28;20231;-62
2022/03/23 18:07:08;;;;;;;7.20;4.43;;;10.90;1.00;;;;;;8411404;28;20196;-62
2022/03/23 18:11:09;;;;;;;6.13;4.40;;;10.70;1.00;;;;;;8413249;28;20225;-61
2022/03/23 18:15:15;;;;;;;6.07;4.00;;;10.50;1.00;;;;;;8406300;28;20236;-61
2022/03/23 18:19:18;;;;;;;7.40;4.23;;;10.30;9.30;;;;;;8417839;28;20501;-62
2022/03/23 18:23:18;;;;;;;6.60;4.37;;;10.10;17.40;;;;;;8441850;28;20227;-60
2022/03/23 18:27:19;;;;;;;5.97;4.03;;;9.80;31.70;;;;;;8428948;28;20203;-61
2022/03/23 18:31:22;;;;;;;7.20;4.77;;;9.60;46.90;;;;;;8434978;28;20207;-60
2022/03/23 18:35:24;;;;;;;7.53;4.13;;;9.40;63.10;;;;;;8447659;28;20564;-68
2022/03/23 18:39:25;;;;;;;7.47;4.27;;;9.20;81.30;;;;;;8427877;28;20204;-60
2022/03/23 18:43:26;;;;;;;7.97;5.43;;;9.00;95.30;;;;;;8421710;28;20219;-61
2022/03/23 18:47:27;;;;;;;14.10;7.27;;;8.80;99.90;;;;;;8401612;28;20226;-60
2022/03/23 18:51:28;;;;;;;16.77;8.20;;;8.70;99.90;;;;;;8404457;28;20196;-62
2022/03/23 18:55:29;;;;;;;17.37;8.47;;;8.70;99.90;;;;;;8419038;28;20207;-60
2022/03/23 18:59:30;;;;;;;11.23;5.87;;;8.50;99.90;;;;;;8424018;28;20219;-61
2022/03/23 19:03:31;;;;;;;9.97;4.73;;;8.20;99.90;;;;;;8406612;28;20251;-60
2022/03/23 19:07:33;;;;;;;5.93;3.73;;;7.90;99.90;;;;;;8410104;28;20207;-60
2022/03/23 19:11:33;;;;;;;7.00;3.87;;;7.60;99.90;;;;;;8404037;28;20290;-60
2022/03/23 19:15:35;;;;;;;5.27;3.63;;;7.50;99.90;;;;;;8418377;28;20196;-61
2022/03/23 19:19:36;;;;;;;5.80;4.00;;;7.30;99.90;;;;;;8427665;28;20205;-60
2022/03/23 19:23:38;;;;;;;6.77;4.00;;;7.10;99.90;;;;;;8418022;28;20208;-61
2022/03/23 19:27:39;;;;;;;5.00;3.83;;;6.90;99.90;;;;;;8409912;28;20208;-62
2022/03/23 19:31:40;;;;;;;7.03;3.97;;;6.70;99.90;;;;;;8452852;28;20250;-62
2022/03/23 19:35:42;;;;;;;6.03;3.63;;;6.50;99.90;;;;;;8444706;28;20291;-62
2022/03/23 19:39:43;;;;;;;6.17;3.90;;;6.40;99.90;;;;;;8442089;28;20244;-62
2022/03/23 19:43:45;;;;;;;5.40;3.83;;;6.20;99.90;;;;;;8448870;28;20216;-60
2022/03/23 19:47:46;;;;;;;5.50;3.70;;;6.10;99.90;;;;;;8411664;28;20212;-60
2022/03/23 19:51:47;;;;;;;5.77;3.70;;;5.90;99.90;;;;;;8421473;28;20208;-61
2022/03/23 19:55:48;;;;;;;5.30;3.90;;;5.80;99.90;;;;;;8410113;28;20215;-60
2022/03/23 19:59:52;;;;;;;4.43;3.53;;;5.70;99.90;;;;;;8409190;28;20221;-62
2022/03/23 20:03:53;;;;;;;6.10;3.90;;;5.60;99.90;;;;;;8420436;28;20224;-60
2022/03/23 20:07:54;;;;;;;5.37;3.53;;;5.50;99.90;;;;;;8408359;28;20241;-60
2022/03/23 20:11:55;;;;;;;7.30;4.80;;;5.40;99.90;;;;;;8410609;28;20223;-60
2022/03/23 20:15:58;;;;;;;6.83;4.50;;;5.20;1.00;;;;;;8428100;28;20204;-60
2022/03/23 20:19:59;;;;;;;7.43;4.60;;;5.10;1.00;;;;;;8402817;28;20309;-62
2022/03/23 20:24:01;;;;;;;6.73;4.20;;;5.00;1.00;;;;;;8431195;28;20232;-60
2022/03/23 20:28:02;;;;;;;7.60;4.27;;;4.90;1.00;;;;;;8425788;28;20215;-60
2022/03/23 20:32:03;;;;;;;8.10;4.97;;;4.80;1.00;;;;;;8432753;28;20201;-62
2022/03/23 20:36:04;;;;;;;5.67;4.03;;;4.70;1.00;;;;;;8420856;28;20200;-61
2022/03/23 20:40:06;;;;;;;6.70;4.27;;;4.60;1.00;;;;;;8428405;28;20328;-60
2022/03/23 20:44:08;;;;;;;7.93;4.97;;;4.50;1.00;;;;;;8418204;28;20213;-60
2022/03/23 20:48:09;;;;;;;8.33;5.13;;;4.40;1.00;;;;;;8428008;28;20192;-60
2022/03/23 20:52:12;;;;;;;8.67;5.40;;;4.30;1.00;;;;;;8406379;28;20261;-62
2022/03/23 20:56:13;;;;;;;7.77;4.83;;;4.20;1.00;;;;;;8423830;28;20194;-60
2022/03/23 21:00:16;;;;;;;8.87;5.60;;;4.20;1.00;;;;;;8416684;28;20257;-61
2022/03/23 21:04:17;;;;;;;11.67;5.50;;;4.10;1.00;;;;;;8427196;28;20223;-60
2022/03/23 21:08:19;;;;;;;8.93;5.27;;;4.00;1.00;;;;;;8432379;28;20192;-61
2022/03/23 21:12:21;;;;;;;9.00;5.23;;;3.90;1.00;;;;;;8401565;28;20287;-61
2022/03/23 21:16:23;;;;;;;7.90;5.53;;;3.80;1.00;;;;;;8402179;28;20196;-60
2022/03/23 21:20:24;;;;;;;7.73;4.80;;;3.70;22.70;;;;;;8404186;28;20230;-60
2022/03/23 21:24:25;;;;;;;9.47;6.33;;;3.60;48.00;;;;;;8416331;28;20220;-62
2022/03/23 21:28:26;;;;;;;11.13;6.63;;;3.50;89.80;;;;;;8400645;28;20200;-61
2022/03/23 21:32:28;;;;;;;10.17;6.73;;;3.50;95.50;;;;;;8424209;28;20253;-61
2022/03/23 21:36:29;;;;;;;9.90;6.27;;;3.40;99.90;;;;;;8419441;28;20239;-60
2022/03/23 21:40:31;;;;;;;10.00;5.97;;;3.30;99.90;;;;;;8426763;28;20301;-60
2022/03/23 21:44:31;;;;;;;10.07;6.27;;;3.20;99.90;;;;;;8406737;28;20227;-63
2022/03/23 21:48:32;;;;;;;9.30;6.10;;;3.10;99.90;;;;;;8402231;28;20282;-62
2022/03/23 21:52:34;;;;;;;9.70;6.53;;;3.00;99.90;;;;;;8429921;28;20308;-60